MDT,Max TemperatureF,Mean TemperatureF,Min TemperatureF,Max Dew PointF,MeanDew PointF,Min DewpointF,Max Humidity, Mean Humidity, Min Humidity, Max Sea Level PressureIn, Mean Sea Level PressureIn, Min Sea Level PressureIn, Max VisibilityMiles, Mean VisibilityMiles, Min VisibilityMiles, Max Wind SpeedMPH, Mean Wind SpeedMPH, Max Gust SpeedMPH,PrecipitationIn, CloudCover, Events, WindDirDegrees
2013-4-1,72,58,43,34,26,10,54,32,9,29.87,29.79,29.68,10,10,10,31,9,40,T,4,,268
2013-4-2,58,49,40,35,31,29,62,50,38,30.02,29.88,29.79,10,10,10,17,5,23,T,3,Rain,321
2013-4-3,69,50,31,34,26,18,75,46,17,30.13,30.05,29.99,10,10,10,12,2,16,0.00,0,,265
2013-4-4,73,55,36,24,17,6,44,27,9,30.13,30.01,29.88,10,10,10,16,4,22,0.00,0,,199
2013-4-5,75,60,45,30,22,15,38,26,14,29.86,29.79,29.69,10,10,6,37,9,54,T,3,Rain,270
2013-4-6,70,55,40,32,23,16,51,32,13,29.94,29.86,29.75,10,10,10,24,5,29,0.00,2,,291
2013-4-7,74,56,37,30,21,7,64,37,9,29.84,29.71,29.52,10,10,10,29,8,36,0.00,1,,272
2013-4-8,68,55,41,43,28,9,92,55,18,29.49,29.32,29.18,10,10,3,33,10,44,0.09,5,Rain-Thunderstorm,162
2013-4-9,43,35,27,36,30,14,92,70,47,30.11,29.64,29.36,10,10,4,30,13,37,0.04,7,Rain-Snow,184
2013-4-10,48,35,22,19,14,10,65,46,26,30.19,30.10,30.00,10,10,10,20,5,24,0.00,1,,80
2013-4-11,62,47,32,37,31,18,92,60,27,29.99,29.91,29.77,10,10,10,14,5,17,0.01,4,Rain,102
2013-4-12,66,49,32,33,19,2,82,46,9,29.90,29.84,29.79,10,10,10,12,4,17,0.00,0,,289
2013-4-13,73,53,32,39,19,10,59,35,11,29.80,29.57,29.31,10,10,10,36,14,44,T,2,,236
2013-4-14,59,48,37,39,13,5,60,36,12,29.78,29.61,29.48,10,10,10,20,8,26,T,2,Rain,311
2013-4-15,48,43,38,39,30,9,92,57,22,29.68,29.56,29.41,10,10,7,25,10,30,0.10,6,Rain,129
2013-4-16,59,47,34,38,33,26,92,61,30,29.80,29.61,29.52,10,10,8,39,10,48,0.01,6,Rain,282
2013-4-17,46,38,30,31,25,11,100,63,25,30.16,29.89,29.78,10,8,1,21,9,28,0.02,7,Snow,324
2013-4-18,48,38,27,15,12,7,58,39,19,30.29,30.22,30.14,10,10,10,12,4,18,T,3,,110
2013-4-19,59,44,28,20,14,11,58,38,17,30.30,30.16,29.94,10,10,10,16,5,20,0.00,2,,160
2013-4-20,62,52,41,42,30,18,89,58,27,30.05,29.95,29.87,10,9,3,22,6,26,0.15,4,Rain,277
2013-4-21,68,50,31,33,24,16,82,48,13,30.12,30.01,29.85,10,10,10,13,4,18,0.00,0,,253
2013-4-22,74,58,41,29,21,12,53,32,10,29.87,29.80,29.68,10,10,10,30,9,36,0.00,1,,310
2013-4-23,56,48,39,27,13,-1,49,30,11,30.07,30.00,29.88,10,10,10,23,5,26,0.00,3,,45
2013-4-24,62,51,40,11,7,3,28,19,10,30.12,30.06,30.01,10,10,10,13,4,16,0.00,0,,118
2013-4-25,70,55,40,12,9,6,27,18,8,30.02,29.92,29.79,10,10,10,16,6,22,0.00,0,,267
2013-4-26,73,55,37,15,10,6,28,18,8,30.10,30.04,29.93,10,10,10,14,4,18,0.00,0,,252
2013-4-27,76,56,35,16,7,-8,30,17,4,30.18,30.08,29.96,10,10,10,15,3,20,0.00,0,,237
2013-4-28,81,60,38,18,15,10,29,19,9,30.08,29.90,29.75,10,10,10,15,4,18,0.00,0,,285
2013-4-29,83,63,43,24,19,16,33,21,8,29.80,29.68,29.52,10,10,10,20,4,25,0.00,0,,261
2013-4-30,83,66,49,25,21,10,29,20,10,29.71,29.51,29.43,10,10,10,41,12,49,T,1,,288